Time;durP1;ratioP1;P1;durP2;ratioP2;P2;SDS_P1;SDS_P2;PMS_P1;PMS_P2;Temp;Humidity;BMP_temperature;BMP_pressure;BME280_temperature;BME280_humidity;BME280_pressure;Samples;Min_cycle;Max_cycle;Signal;HPM_P1;HPM_P2
2023/08/15 00:01:48;;;;;;;0.30;0.30;;;21.70;60.50;;;;;;6268731;28;20036;-71
2023/08/15 00:04:49;;;;;;;0.30;0.30;;;21.70;60.40;;;;;;6266815;28;20565;-69
2023/08/15 00:07:51;;;;;;;0.20;0.20;;;21.70;60.40;;;;;;6269005;28;20048;-69
2023/08/15 00:10:52;;;;;;;0.30;0.30;;;21.70;60.40;;;;;;6251049;28;20040;-71
2023/08/15 00:13:55;;;;;;;0.32;0.32;;;21.70;60.40;;;;;;6267335;28;20055;-71
2023/08/15 00:16:56;;;;;;;0.28;0.28;;;21.70;60.40;;;;;;6270830;28;20052;-73
2023/08/15 00:19:57;;;;;;;0.85;0.40;;;21.70;60.40;;;;;;6268534;28;20082;-70
2023/08/15 00:22:58;;;;;;;0.30;0.30;;;21.70;60.50;;;;;;6268347;28;20038;-72
2023/08/15 00:25:58;;;;;;;0.20;0.20;;;21.70;60.40;;;;;;6267641;28;20048;-70
2023/08/15 00:28:59;;;;;;;0.30;0.30;;;21.70;60.40;;;;;;6268066;28;20083;-72
2023/08/15 00:32:00;;;;;;;0.30;0.30;;;21.70;60.40;;;;;;6268303;28;20064;-71
2023/08/15 00:35:04;;;;;;;0.30;0.30;;;21.70;60.40;;;;;;6268241;28;20036;-70
2023/08/15 00:38:05;;;;;;;0.30;0.30;;;21.70;60.40;;;;;;6268783;28;20064;-70
2023/08/15 00:41:05;;;;;;;0.30;0.30;;;21.70;60.40;;;;;;6272866;28;20033;-70
2023/08/15 00:44:06;;;;;;;0.45;0.30;;;21.70;60.50;;;;;;6272839;28;20063;-71
2023/08/15 00:47:07;;;;;;;0.35;0.35;;;21.70;60.50;;;;;;6271668;28;20052;-71
2023/08/15 00:50:09;;;;;;;0.40;0.30;;;21.70;60.50;;;;;;6272636;28;20502;-72
2023/08/15 00:53:11;;;;;;;0.30;0.30;;;21.70;60.50;;;;;;6272439;28;20040;-71
2023/08/15 00:56:13;;;;;;;0.20;0.20;;;21.70;60.50;;;;;;6272741;28;20032;-71
2023/08/15 00:59:14;;;;;;;0.30;0.30;;;21.70;60.50;;;;;;6271776;28;20025;-70
2023/08/15 01:02:15;;;;;;;0.43;0.40;;;21.70;60.50;;;;;;6272185;28;20057;-71
2023/08/15 01:05:18;;;;;;;0.30;0.30;;;21.70;60.50;;;;;;6271405;28;20524;-71
2023/08/15 01:08:18;;;;;;;0.20;0.20;;;21.70;60.50;;;;;;6287896;28;20029;-71
2023/08/15 01:11:19;;;;;;;0.50;0.40;;;21.70;60.50;;;;;;6272883;28;20036;-71
2023/08/15 01:14:25;;;;;;;0.40;0.40;;;21.70;60.50;;;;;;6254504;28;20041;-70
2023/08/15 01:17:37;;;;;;;0.43;0.30;;;21.70;60.50;;;;;;6272082;28;20068;-71
2023/08/15 01:20:39;;;;;;;0.30;0.30;;;21.70;60.50;;;;;;6270893;28;20033;-70
2023/08/15 01:23:42;;;;;;;0.47;0.40;;;21.70;60.60;;;;;;6270267;28;20119;-71
2023/08/15 01:26:43;;;;;;;1.17;0.30;;;21.70;60.50;;;;;;6271880;28;20105;-71
2023/08/15 01:29:44;;;;;;;0.20;0.20;;;21.70;60.50;;;;;;6272142;28;20459;-72
2023/08/15 01:32:44;;;;;;;0.30;0.30;;;21.70;61.40;;;;;;6270630;28;20708;-70
2023/08/15 01:35:50;;;;;;;0.20;0.20;;;21.70;60.60;;;;;;6271641;28;20068;-71
2023/08/15 01:39:03;;;;;;;0.60;0.40;;;21.70;60.60;;;;;;6253997;28;20127;-70
2023/08/15 01:42:05;;;;;;;0.52;0.40;;;21.70;60.50;;;;;;6253835;28;20405;-71
2023/08/15 01:45:09;;;;;;;1.02;0.30;;;21.70;60.50;;;;;;6271490;28;20051;-70
2023/08/15 01:48:10;;;;;;;0.38;0.28;;;21.70;60.50;;;;;;6271320;28;20041;-71
2023/08/15 01:51:11;;;;;;;0.40;0.35;;;21.70;61.40;;;;;;6271246;28;20065;-71
2023/08/15 01:54:12;;;;;;;0.70;0.40;;;21.70;60.60;;;;;;6270945;28;20383;-72
2023/08/15 01:57:12;;;;;;;0.60;0.40;;;21.70;60.60;;;;;;6269728;28;20131;-72
2023/08/15 02:00:13;;;;;;;0.30;0.30;;;21.70;60.60;;;;;;6270278;28;20527;-71
2023/08/15 02:03:14;;;;;;;0.28;0.25;;;21.70;60.60;;;;;;6253453;28;20565;-71
2023/08/15 02:06:15;;;;;;;0.38;0.38;;;21.70;60.60;;;;;;6270445;28;20041;-71
2023/08/15 02:09:17;;;;;;;0.73;0.30;;;21.70;60.60;;;;;;6270863;28;20029;-70
2023/08/15 02:12:18;;;;;;;0.30;0.30;;;21.70;60.60;;;;;;6271201;28;20064;-70
2023/08/15 02:15:19;;;;;;;0.38;0.30;;;21.70;60.60;;;;;;6270960;28;20029;-71
2023/08/15 02:18:19;;;;;;;0.20;0.20;;;21.70;60.60;;;;;;6270720;28;20035;-70
2023/08/15 02:21:20;;;;;;;0.68;0.40;;;21.70;60.60;;;;;;6270803;28;20021;-72
2023/08/15 02:24:21;;;;;;;0.43;0.30;;;21.70;60.60;;;;;;6270454;28;20029;-71
2023/08/15 02:27:21;;;;;;;0.22;0.22;;;21.70;60.60;;;;;;6268961;28;20490;-70
2023/08/15 02:30:22;;;;;;;0.20;0.20;;;21.70;60.60;;;;;;6270426;28;20032;-70
2023/08/15 02:33:23;;;;;;;0.20;0.20;;;21.70;60.60;;;;;;6269319;28;20120;-71
2023/08/15 02:36:23;;;;;;;0.20;0.20;;;21.70;60.60;;;;;;6270147;28;20113;-70
2023/08/15 02:39:24;;;;;;;0.38;0.30;;;21.70;60.60;;;;;;6270412;28;20035;-72
2023/08/15 02:42:25;;;;;;;0.75;0.32;;;21.70;60.60;;;;;;6270922;28;20104;-71
2023/08/15 02:45:26;;;;;;;0.30;0.30;;;21.70;60.60;;;;;;6270053;28;20389;-70
2023/08/15 02:48:26;;;;;;;0.40;0.30;;;21.70;60.60;;;;;;6268593;28;20033;-71
2023/08/15 02:51:27;;;;;;;0.32;0.32;;;21.70;60.60;;;;;;6270182;28;20032;-71
2023/08/15 02:54:28;;;;;;;0.85;0.40;;;21.70;60.60;;;;;;6269296;28;20073;-70
2023/08/15 02:57:29;;;;;;;0.40;0.30;;;21.70;60.60;;;;;;6269666;28;20490;-72
2023/08/15 03:00:29;;;;;;;0.40;0.30;;;21.70;60.60;;;;;;6270081;28;20029;-70
2023/08/15 03:03:30;;;;;;;0.35;0.35;;;21.70;60.60;;;;;;6270778;28;20033;-69
2023/08/15 03:06:31;;;;;;;0.50;0.50;;;21.70;60.60;;;;;;6270443;28;20053;-70
2023/08/15 03:09:32;;;;;;;0.25;0.22;;;21.70;60.60;;;;;;6270127;28;20052;-69
2023/08/15 03:12:32;;;;;;;0.30;0.30;;;21.70;60.60;;;;;;6270637;28;20061;-69
2023/08/15 03:15:35;;;;;;;0.30;0.30;;;21.70;60.70;;;;;;6252101;28;20029;-69
2023/08/15 03:18:36;;;;;;;0.30;0.30;;;21.70;60.70;;;;;;6285444;28;20040;-70
2023/08/15 03:21:37;;;;;;;0.52;0.32;;;21.70;60.70;;;;;;6270455;28;20029;-69
2023/08/15 03:24:38;;;;;;;0.22;0.22;;;21.70;60.70;;;;;;6268884;28;20055;-69
2023/08/15 03:27:38;;;;;;;0.70;0.40;;;21.70;60.70;;;;;;6269691;28;20523;-69
2023/08/15 03:30:39;;;;;;;0.55;0.40;;;21.70;60.70;;;;;;6270011;28;20060;-70
2023/08/15 03:33:39;;;;;;;0.45;0.35;;;21.70;60.70;;;;;;6268583;28;20087;-69
2023/08/15 03:36:40;;;;;;;0.30;0.20;;;21.70;60.70;;;;;;6268453;28;20044;-69
2023/08/15 03:39:42;;;;;;;0.55;0.40;;;21.70;60.70;;;;;;6269462;28;20545;-69
2023/08/15 03:42:42;;;;;;;0.45;0.38;;;21.70;60.70;;;;;;6269967;28;20064;-70
2023/08/15 03:45:43;;;;;;;0.30;0.30;;;21.70;60.70;;;;;;6269740;28;20684;-69
2023/08/15 03:48:44;;;;;;;0.20;0.20;;;21.70;60.70;;;;;;6268100;28;20699;-70
2023/08/15 03:51:45;;;;;;;0.30;0.20;;;21.70;60.70;;;;;;6269334;28;20587;-69
2023/08/15 03:54:45;;;;;;;0.20;0.20;;;21.70;60.70;;;;;;6269798;28;20566;-69
2023/08/15 03:57:46;;;;;;;0.22;0.22;;;21.70;60.70;;;;;;6269372;28;20622;-69
2023/08/15 04:00:48;;;;;;;0.30;0.30;;;21.70;60.70;;;;;;6251427;28;20029;-69
2023/08/15 04:03:50;;;;;;;0.40;0.40;;;21.70;60.70;;;;;;6269161;28;20107;-70
2023/08/15 04:06:51;;;;;;;1.17;0.30;;;21.70;60.80;;;;;;6269355;28;20040;-70
2023/08/15 04:09:52;;;;;;;0.30;0.30;;;21.70;60.70;;;;;;6269132;28;20041;-69
2023/08/15 04:12:52;;;;;;;0.30;0.30;;;21.70;60.80;;;;;;6268050;28;20363;-70
2023/08/15 04:15:53;;;;;;;0.30;0.30;;;21.70;60.80;;;;;;6269314;28;20029;-70
2023/08/15 04:18:54;;;;;;;0.40;0.40;;;21.70;60.80;;;;;;6269091;28;20442;-69
2023/08/15 04:21:54;;;;;;;0.20;0.20;;;21.70;60.80;;;;;;6269024;28;20076;-69
2023/08/15 04:24:55;;;;;;;0.30;0.30;;;21.70;60.80;;;;;;6251769;28;20036;-70
2023/08/15 04:27:56;;;;;;;0.20;0.20;;;21.70;60.80;;;;;;6267979;28;20741;-70
2023/08/15 04:30:56;;;;;;;0.47;0.40;;;21.70;60.80;;;;;;6269023;28;20581;-70
2023/08/15 04:33:57;;;;;;;0.30;0.30;;;21.70;60.80;;;;;;6251067;28;20033;-70
2023/08/15 04:36:57;;;;;;;0.20;0.20;;;21.70;60.80;;;;;;6267896;28;20406;-70
2023/08/15 04:39:58;;;;;;;0.50;0.30;;;21.70;60.70;;;;;;6268619;28;20026;-69
2023/08/15 04:42:59;;;;;;;0.30;0.30;;;21.70;60.80;;;;;;6268948;28;20032;-69
2023/08/15 04:46:00;;;;;;;0.68;0.20;;;21.70;60.70;;;;;;6269103;28;20461;-69
2023/08/15 04:49:00;;;;;;;0.40;0.30;;;21.70;60.70;;;;;;6267521;28;20041;-69
2023/08/15 04:52:01;;;;;;;0.30;0.30;;;21.70;60.70;;;;;;6268805;28;20121;-70
2023/08/15 04:55:02;;;;;;;0.52;0.40;;;21.70;60.70;;;;;;6267644;28;20607;-69
2023/08/15 04:58:03;;;;;;;0.25;0.25;;;21.70;60.70;;;;;;6267293;28;20064;-70
2023/08/15 05:01:03;;;;;;;0.45;0.32;;;21.70;60.70;;;;;;6268557;28;20033;-69
2023/08/15 05:04:04;;;;;;;0.40;0.40;;;21.70;60.70;;;;;;6268441;28;20025;-70
2023/08/15 05:07:05;;;;;;;0.60;0.40;;;21.70;60.70;;;;;;6268681;28;20366;-69
2023/08/15 05:10:07;;;;;;;0.25;0.25;;;21.70;60.70;;;;;;6268628;28;20029;-70
2023/08/15 05:13:08;;;;;;;0.30;0.30;;;21.70;60.70;;;;;;6250599;28;20025;-69
2023/08/15 05:16:09;;;;;;;0.45;0.38;;;21.70;60.70;;;;;;6268719;28;20083;-69
2023/08/15 05:19:09;;;;;;;0.35;0.30;;;21.70;60.80;;;;;;6250569;28;20033;-69
2023/08/15 05:22:10;;;;;;;0.25;0.25;;;21.70;60.80;;;;;;6268632;28;20418;-69
2023/08/15 05:25:11;;;;;;;0.50;0.40;;;21.70;60.70;;;;;;6270812;28;20527;-69
2023/08/15 05:28:11;;;;;;;0.35;0.20;;;21.70;60.80;;;;;;6273196;28;20045;-69
2023/08/15 05:31:14;;;;;;;0.40;0.40;;;21.70;60.70;;;;;;6255026;28;20410;-69
2023/08/15 05:34:15;;;;;;;0.65;0.40;;;21.70;60.70;;;;;;6272868;28;20037;-70
2023/08/15 05:37:15;;;;;;;0.43;0.40;;;21.70;60.70;;;;;;6272582;28;20040;-69
2023/08/15 05:40:16;;;;;;;0.30;0.30;;;21.70;60.80;;;;;;6272745;28;20490;-67
2023/08/15 05:43:17;;;;;;;0.63;0.30;;;21.70;60.80;;;;;;6272365;28;20063;-70
2023/08/15 05:46:17;;;;;;;0.40;0.30;;;21.70;60.80;;;;;;6272593;28;20029;-70
2023/08/15 05:49:18;;;;;;;0.73;0.40;;;21.70;60.80;;;;;;6272322;28;20490;-69
2023/08/15 05:52:19;;;;;;;0.30;0.30;;;21.70;60.80;;;;;;6272595;28;20052;-69
2023/08/15 05:55:19;;;;;;;0.30;0.30;;;21.70;60.80;;;;;;6272372;28;20048;-71
2023/08/15 05:58:20;;;;;;;0.55;0.40;;;21.70;60.80;;;;;;6272405;28;20115;-70
2023/08/15 06:01:21;;;;;;;0.40;0.40;;;21.70;60.80;;;;;;6273995;28;20056;-70
2023/08/15 06:04:21;;;;;;;0.50;0.40;;;21.70;60.80;;;;;;6274178;28;20045;-70
2023/08/15 06:07:23;;;;;;;0.60;0.40;;;21.70;60.80;;;;;;6273880;28;20508;-70
2023/08/15 06:10:24;;;;;;;0.55;0.40;;;21.70;60.80;;;;;;6274149;28;20036;-69
2023/08/15 06:13:24;;;;;;;0.40;0.40;;;21.70;61.60;;;;;;6273966;28;20104;-69
2023/08/15 06:16:25;;;;;;;0.40;0.40;;;21.70;60.80;;;;;;6273956;28;20074;-70
2023/08/15 06:19:26;;;;;;;0.43;0.32;;;21.70;60.80;;;;;;6273572;28;20398;-69
2023/08/15 06:22:27;;;;;;;0.30;0.30;;;21.70;60.80;;;;;;6274008;28;20027;-70
2023/08/15 06:25:27;;;;;;;0.90;0.50;;;21.70;60.80;;;;;;6273483;28;20451;-69
2023/08/15 06:28:29;;;;;;;0.70;0.40;;;21.70;60.80;;;;;;6273930;28;20091;-69
2023/08/15 06:31:30;;;;;;;0.52;0.45;;;21.70;60.80;;;;;;6273602;28;20482;-70
2023/08/15 06:34:31;;;;;;;0.40;0.40;;;21.70;60.80;;;;;;6273969;28;20567;-70
2023/08/15 06:37:32;;;;;;;0.80;0.40;;;21.70;60.80;;;;;;6272286;28;20033;-70
2023/08/15 06:40:33;;;;;;;0.43;0.30;;;21.70;60.80;;;;;;6273801;28;20033;-70
2023/08/15 06:43:34;;;;;;;0.28;0.20;;;21.70;60.80;;;;;;6273531;28;20072;-69
2023/08/15 06:46:35;;;;;;;0.75;0.30;;;21.70;60.80;;;;;;6272826;28;20037;-71
2023/08/15 06:49:36;;;;;;;0.30;0.30;;;21.70;60.80;;;;;;6274122;28;20031;-70
2023/08/15 06:52:37;;;;;;;0.30;0.30;;;21.70;60.80;;;;;;6273830;28;20025;-70
2023/08/15 06:55:38;;;;;;;0.30;0.30;;;21.70;60.80;;;;;;6274187;28;20029;-70
2023/08/15 06:58:39;;;;;;;0.50;0.40;;;21.70;60.90;;;;;;6272325;28;20044;-70
2023/08/15 07:01:39;;;;;;;0.40;0.32;;;21.70;60.80;;;;;;6271990;28;20029;-70
2023/08/15 07:04:40;;;;;;;0.30;0.28;;;21.70;60.80;;;;;;6272065;28;20064;-70
2023/08/15 07:07:41;;;;;;;0.30;0.30;;;21.70;60.90;;;;;;6272073;28;20036;-70
2023/08/15 07:10:41;;;;;;;0.50;0.22;;;21.70;60.80;;;;;;6273661;28;20059;-70
2023/08/15 07:13:42;;;;;;;0.60;0.40;;;21.70;60.80;;;;;;6273748;28;20033;-70
2023/08/15 07:16:43;;;;;;;0.68;0.40;;;21.70;60.80;;;;;;6273359;28;20394;-70
2023/08/15 07:19:43;;;;;;;0.32;0.30;;;21.70;60.90;;;;;;6272697;28;20375;-70
2023/08/15 07:22:44;;;;;;;0.20;0.20;;;21.70;60.90;;;;;;6273053;28;20033;-69
2023/08/15 07:25:45;;;;;;;0.43;0.20;;;21.70;60.80;;;;;;6272895;28;20029;-70
2023/08/15 07:28:45;;;;;;;0.57;0.40;;;21.70;60.90;;;;;;6271977;28;20065;-70
2023/08/15 07:31:46;;;;;;;0.57;0.30;;;21.70;60.80;;;;;;6271951;28;20033;-70
2023/08/15 07:34:48;;;;;;;0.30;0.30;;;21.70;60.80;;;;;;6254296;28;20037;-69
2023/08/15 07:37:48;;;;;;;0.20;0.20;;;21.70;60.80;;;;;;6270948;28;20033;-70
2023/08/15 07:40:49;;;;;;;0.28;0.28;;;21.70;60.80;;;;;;6272140;28;20056;-69
2023/08/15 07:43:50;;;;;;;0.43;0.30;;;21.70;60.80;;;;;;6272676;28;20044;-70
2023/08/15 07:46:51;;;;;;;0.50;0.32;;;21.70;60.80;;;;;;6271567;28;20032;-70
2023/08/15 07:50:14;;;;;;;0.50;0.40;;;21.70;60.80;;;;;;6271926;28;20393;-69
2023/08/15 07:53:14;;;;;;;0.32;0.30;;;21.70;60.90;;;;;;6270608;28;20040;-70
2023/08/15 07:56:15;;;;;;;0.47;0.20;;;21.70;60.90;;;;;;6271568;28;20029;-69
2023/08/15 07:59:16;;;;;;;0.88;0.20;;;21.70;60.80;;;;;;6271505;28;20060;-70
2023/08/15 08:02:16;;;;;;;0.30;0.30;;;21.70;60.90;;;;;;6272151;28;20080;-69
2023/08/15 08:05:17;;;;;;;0.20;0.20;;;21.70;60.80;;;;;;6271466;28;20497;-70
2023/08/15 08:08:18;;;;;;;0.47;0.40;;;21.70;60.90;;;;;;6271811;28;20580;-70
2023/08/15 08:11:18;;;;;;;0.70;0.50;;;21.70;60.90;;;;;;6271467;28;20033;-69
2023/08/15 08:14:19;;;;;;;0.35;0.30;;;21.70;60.90;;;;;;6271597;28;20033;-69
2023/08/15 08:17:21;;;;;;;0.30;0.30;;;21.70;60.90;;;;;;6270365;28;20033;-70
2023/08/15 08:20:22;;;;;;;0.20;0.20;;;21.70;60.90;;;;;;6270245;28;20025;-70
2023/08/15 08:23:24;;;;;;;0.30;0.30;;;21.70;60.90;;;;;;6271512;28;20108;-70
2023/08/15 08:26:24;;;;;;;0.50;0.40;;;21.70;60.90;;;;;;6270917;28;20021;-69
2023/08/15 08:29:25;;;;;;;0.20;0.20;;;21.70;60.90;;;;;;6271449;28;20486;-70
2023/08/15 08:32:25;;;;;;;0.20;0.20;;;21.70;60.90;;;;;;6271198;28;20414;-69
2023/08/15 08:35:26;;;;;;;0.50;0.40;;;21.70;60.90;;;;;;6271318;28;20033;-70
2023/08/15 08:38:27;;;;;;;0.25;0.25;;;21.70;60.90;;;;;;6253164;28;20033;-69
2023/08/15 08:41:28;;;;;;;0.30;0.30;;;21.70;60.90;;;;;;6271344;28;20021;-70
2023/08/15 08:44:31;;;;;;;0.40;0.20;;;21.70;60.90;;;;;;6271022;28;20029;-69
2023/08/15 08:47:33;;;;;;;0.20;0.20;;;21.70;60.90;;;;;;6269896;28;20025;-70
2023/08/15 08:50:34;;;;;;;0.45;0.32;;;21.70;60.90;;;;;;6271002;28;20033;-69
2023/08/15 08:53:35;;;;;;;0.30;0.30;;;21.70;60.90;;;;;;6270111;28;20032;-69
2023/08/15 08:56:40;;;;;;;0.20;0.20;;;21.70;60.90;;;;;;6270730;28;20025;-69
2023/08/15 08:59:43;;;;;;;0.30;0.30;;;21.70;60.90;;;;;;6272732;28;20382;-69
2023/08/15 09:02:44;;;;;;;0.30;0.30;;;21.70;60.90;;;;;;6274580;28;20033;-69
2023/08/15 09:05:45;;;;;;;0.30;0.30;;;21.70;60.90;;;;;;6275687;28;20037;-69
2023/08/15 09:08:46;;;;;;;0.30;0.30;;;21.70;60.90;;;;;;6275808;28;20033;-70
2023/08/15 09:11:47;;;;;;;0.30;0.30;;;21.70;60.90;;;;;;6275620;28;20033;-69
2023/08/15 09:14:48;;;;;;;0.30;0.30;;;21.70;60.90;;;;;;6275424;28;20033;-70
2023/08/15 09:17:49;;;;;;;0.47;0.45;;;21.70;60.90;;;;;;6275504;28;20029;-69
2023/08/15 09:20:49;;;;;;;0.28;0.28;;;21.70;60.90;;;;;;6275262;28;20029;-69
2023/08/15 09:23:51;;;;;;;0.40;0.30;;;21.70;60.90;;;;;;6275430;28;20028;-70
2023/08/15 09:26:52;;;;;;;0.40;0.40;;;21.70;60.90;;;;;;6275080;28;20029;-69
2023/08/15 09:29:53;;;;;;;0.40;0.30;;;21.70;60.90;;;;;;6275274;28;20087;-69
2023/08/15 09:32:54;;;;;;;0.20;0.20;;;21.70;60.90;;;;;;6274988;28;20087;-70
2023/08/15 09:35:54;;;;;;;0.30;0.30;;;21.70;60.90;;;;;;6275023;28;20041;-69
2023/08/15 09:38:59;;;;;;;0.30;0.30;;;21.70;60.90;;;;;;6274814;28;20029;-69
2023/08/15 09:42:00;;;;;;;0.32;0.32;;;21.70;60.90;;;;;;6275072;28;20025;-69
2023/08/15 09:45:02;;;;;;;0.22;0.22;;;21.70;60.90;;;;;;6274833;28;20025;-69
2023/08/15 09:48:03;;;;;;;0.40;0.30;;;21.70;60.90;;;;;;6274514;28;20509;-69
2023/08/15 09:51:04;;;;;;;0.30;0.30;;;21.70;60.90;;;;;;6273447;28;20032;-70
2023/08/15 09:54:06;;;;;;;0.50;0.30;;;21.70;60.90;;;;;;6274356;28;20029;-69
2023/08/15 09:57:07;;;;;;;0.20;0.20;;;21.70;60.90;;;;;;6274350;28;20029;-69
2023/08/15 10:00:11;;;;;;;0.28;0.28;;;21.70;60.90;;;;;;6274159;28;20040;-68
2023/08/15 10:03:23;;;;;;;0.20;0.20;;;21.70;60.90;;;;;;6274392;28;20056;-69
2023/08/15 10:06:25;;;;;;;0.50;0.40;;;21.70;60.90;;;;;;6273317;28;20305;-71
2023/08/15 10:09:30;;;;;;;0.30;0.30;;;21.70;60.90;;;;;;6271412;28;20040;-70
2023/08/15 10:12:34;;;;;;;0.30;0.30;;;21.70;60.90;;;;;;6272823;28;20032;-71
2023/08/15 10:15:36;;;;;;;0.20;0.20;;;21.70;61.00;;;;;;6272444;28;20044;-71
2023/08/15 10:18:37;;;;;;;0.15;0.15;;;21.70;60.90;;;;;;6272719;28;20028;-70
2023/08/15 10:21:50;;;;;;;0.20;0.20;;;21.70;60.90;;;;;;6272711;28;20100;-71
2023/08/15 10:24:51;;;;;;;0.35;0.30;;;21.70;61.00;;;;;;6271341;28;20215;-71
2023/08/15 10:27:53;;;;;;;0.20;0.20;;;21.70;61.80;;;;;;6272218;28;20060;-71
2023/08/15 10:30:54;;;;;;;0.43;0.30;;;21.70;60.90;;;;;;6272912;28;20040;-70
2023/08/15 10:33:55;;;;;;;0.40;0.30;;;21.70;60.90;;;;;;6270988;28;20063;-71
2023/08/15 10:37:26;;;;;;;0.20;0.20;;;21.70;60.90;;;;;;6272661;28;20421;-71
2023/08/15 10:40:38;;;;;;;0.20;0.20;;;21.70;60.90;;;;;;6254287;28;20037;-71
2023/08/15 10:43:44;;;;;;;0.40;0.20;;;21.70;60.90;;;;;;6272234;28;20029;-70
2023/08/15 10:46:44;;;;;;;0.30;0.22;;;21.70;60.90;;;;;;6270703;28;20040;-70
2023/08/15 10:49:46;;;;;;;0.20;0.20;;;21.70;60.90;;;;;;6271982;28;20025;-70
2023/08/15 10:53:04;;;;;;;0.20;0.20;;;21.70;60.90;;;;;;6254472;28;20689;-71
2023/08/15 10:56:05;;;;;;;0.22;0.22;;;21.70;60.90;;;;;;6270672;28;20056;-71
2023/08/15 10:59:14;;;;;;;0.30;0.20;;;21.70;60.90;;;;;;6271456;28;20033;-71
2023/08/15 11:02:15;;;;;;;0.30;0.30;;;21.70;60.90;;;;;;6271936;28;20037;-71
2023/08/15 11:05:16;;;;;;;0.38;0.30;;;21.70;60.90;;;;;;6271554;28;20463;-71
2023/08/15 11:08:20;;;;;;;0.20;0.20;;;21.70;60.90;;;;;;6270444;28;20041;-71
2023/08/15 11:11:20;;;;;;;0.20;0.20;;;21.70;60.90;;;;;;6271500;28;20490;-71
2023/08/15 11:14:21;;;;;;;0.20;0.20;;;21.70;60.90;;;;;;6271391;28;20048;-71
2023/08/15 11:17:23;;;;;;;0.20;0.20;;;21.70;60.90;;;;;;6270972;28;20033;-71
2023/08/15 11:20:28;;;;;;;0.30;0.30;;;21.70;60.90;;;;;;6271463;28;20029;-71
2023/08/15 11:23:29;;;;;;;0.30;0.22;;;21.70;60.90;;;;;;6269716;28;20021;-71
2023/08/15 11:26:30;;;;;;;0.20;0.20;;;21.70;60.90;;;;;;6270851;28;20040;-71
2023/08/15 11:29:31;;;;;;;0.22;0.22;;;21.70;60.90;;;;;;6269533;28;20033;-71
2023/08/15 11:32:31;;;;;;;0.20;0.20;;;21.70;60.90;;;;;;6261524;28;20033;-71
2023/08/15 11:35:32;;;;;;;0.30;0.30;;;21.70;60.90;;;;;;6269658;28;20059;-71
2023/08/15 11:38:35;;;;;;;0.30;0.20;;;21.70;60.90;;;;;;6270829;28;20055;-71
2023/08/15 11:41:36;;;;;;;0.20;0.20;;;21.70;61.00;;;;;;6269854;28;20489;-71
2023/08/15 11:44:36;;;;;;;0.30;0.30;;;21.70;61.00;;;;;;6270350;28;20025;-71
2023/08/15 11:47:57;;;;;;;0.20;0.20;;;21.70;61.00;;;;;;6253098;28;20078;-71
2023/08/15 11:50:58;;;;;;;0.20;0.20;;;21.70;61.00;;;;;;6270801;28;20402;-71
2023/08/15 11:54:01;;;;;;;0.20;0.20;;;21.70;60.90;;;;;;6252776;28;20124;-71
2023/08/15 11:57:02;;;;;;;0.20;0.20;;;21.70;61.00;;;;;;6270157;28;20029;-71
2023/08/15 12:00:04;;;;;;;0.20;0.20;;;21.70;61.00;;;;;;6270217;28;20033;-71
2023/08/15 12:03:09;;;;;;;0.28;0.20;;;21.70;61.00;;;;;;6270652;28;20505;-70
2023/08/15 12:06:14;;;;;;;0.30;0.30;;;21.70;61.00;;;;;;6270123;28;20041;-71
2023/08/15 12:09:15;;;;;;;0.20;0.20;;;21.70;61.00;;;;;;6270339;28;20061;-71
2023/08/15 12:12:20;;;;;;;0.30;0.30;;;21.70;61.00;;;;;;6251964;28;20040;-70
2023/08/15 12:15:21;;;;;;;0.10;0.10;;;21.70;61.00;;;;;;6270302;28;20056;-71
2023/08/15 12:18:22;;;;;;;0.30;0.20;;;21.70;61.00;;;;;;6268925;28;20040;-71
2023/08/15 12:21:22;;;;;;;0.20;0.20;;;21.70;61.00;;;;;;6270211;28;20025;-71
2023/08/15 12:24:23;;;;;;;0.10;0.10;;;21.70;61.00;;;;;;6270249;28;20102;-71
2023/08/15 12:27:24;;;;;;;0.20;0.20;;;21.70;61.00;;;;;;6268321;28;20061;-71
2023/08/15 12:30:25;;;;;;;0.20;0.20;;;21.70;61.00;;;;;;6270104;28;20496;-71
2023/08/15 12:33:26;;;;;;;0.20;0.20;;;21.70;61.00;;;;;;6269222;28;20067;-71
2023/08/15 12:36:26;;;;;;;0.20;0.20;;;21.70;61.00;;;;;;6274851;28;20478;-70
2023/08/15 12:39:27;;;;;;;0.20;0.20;;;21.70;61.00;;;;;;6273776;28;20564;-71
2023/08/15 12:42:28;;;;;;;0.20;0.20;;;21.70;61.00;;;;;;6256800;28;20033;-70
2023/08/15 12:45:28;;;;;;;0.30;0.30;;;21.70;61.00;;;;;;6273597;28;20040;-71
2023/08/15 12:48:29;;;;;;;0.22;0.22;;;21.70;61.00;;;;;;6274996;28;20025;-71
2023/08/15 12:51:31;;;;;;;0.47;0.32;;;21.70;61.00;;;;;;6274814;28;20043;-71
2023/08/15 12:54:33;;;;;;;0.30;0.30;;;21.70;61.00;;;;;;6273574;28;20555;-70
2023/08/15 12:57:33;;;;;;;0.30;0.30;;;21.70;61.00;;;;;;6273541;28;20037;-71
2023/08/15 13:00:34;;;;;;;0.32;0.32;;;21.70;61.00;;;;;;6273342;28;20098;-71
2023/08/15 13:03:35;;;;;;;0.30;0.30;;;21.70;61.00;;;;;;6274588;28;20033;-71
2023/08/15 13:06:35;;;;;;;0.20;0.20;;;21.70;61.00;;;;;;6274613;28;20383;-71
2023/08/15 13:09:36;;;;;;;0.20;0.20;;;21.70;61.00;;;;;;6256544;28;20394;-70
2023/08/15 13:12:37;;;;;;;0.20;0.20;;;21.70;61.00;;;;;;6265051;28;20037;-71
2023/08/15 13:15:38;;;;;;;0.20;0.20;;;21.80;61.20;;;;;;6249822;28;20034;-71
2023/08/15 13:18:38;;;;;;;0.20;0.20;;;21.70;61.10;;;;;;6265680;28;20669;-70
2023/08/15 13:21:39;;;;;;;0.45;0.40;;;21.70;61.00;;;;;;6274451;28;20021;-71
2023/08/15 13:24:40;;;;;;;0.22;0.22;;;21.70;61.00;;;;;;6272638;28;20033;-71
2023/08/15 13:27:40;;;;;;;0.40;0.40;;;21.70;61.00;;;;;;6273861;28;20486;-71
2023/08/15 13:30:42;;;;;;;0.20;0.20;;;21.70;61.00;;;;;;6273701;28;20429;-71
2023/08/15 13:33:44;;;;;;;0.52;0.30;;;21.70;61.00;;;;;;6273930;28;20048;-71
2023/08/15 13:36:45;;;;;;;0.20;0.20;;;21.70;61.00;;;;;;6273898;28;20026;-71
2023/08/15 13:39:45;;;;;;;0.20;0.20;;;21.80;61.20;;;;;;6273800;28;20025;-71
2023/08/15 13:42:46;;;;;;;0.10;0.10;;;21.70;61.00;;;;;;6272516;28;20033;-71
2023/08/15 13:45:48;;;;;;;0.30;0.30;;;21.70;61.10;;;;;;6271795;28;20033;-70
2023/08/15 13:48:49;;;;;;;0.30;0.30;;;21.70;61.00;;;;;;6273716;28;20032;-71
2023/08/15 13:51:50;;;;;;;0.47;0.30;;;21.70;61.10;;;;;;6273545;28;20560;-71
2023/08/15 13:54:51;;;;;;;0.30;0.30;;;21.70;61.00;;;;;;6273808;28;20025;-71
2023/08/15 13:57:52;;;;;;;0.20;0.20;;;21.70;61.10;;;;;;6273071;28;20175;-71
2023/08/15 14:00:53;;;;;;;0.20;0.20;;;21.70;61.10;;;;;;6273733;28;20248;-71
2023/08/15 14:03:53;;;;;;;0.47;0.30;;;21.70;61.10;;;;;;6272931;28;20029;-71
2023/08/15 14:06:58;;;;;;;0.30;0.30;;;21.70;61.10;;;;;;6273276;28;20083;-71
2023/08/15 14:09:59;;;;;;;0.20;0.20;;;21.70;61.10;;;;;;6272633;28;20060;-71
2023/08/15 14:13:00;;;;;;;0.35;0.20;;;21.80;61.20;;;;;;6255652;28;20132;-71
2023/08/15 14:16:01;;;;;;;0.30;0.28;;;21.70;61.10;;;;;;6272977;28;20036;-71
2023/08/15 14:19:02;;;;;;;0.30;0.30;;;21.70;61.10;;;;;;6255042;28;20044;-71
2023/08/15 14:22:02;;;;;;;0.20;0.20;;;21.70;61.10;;;;;;6272811;28;20029;-71
2023/08/15 14:25:03;;;;;;;0.32;0.30;;;21.70;61.10;;;;;;6272913;28;20056;-71
2023/08/15 14:28:04;;;;;;;0.30;0.30;;;21.70;61.10;;;;;;6272539;28;20029;-70
2023/08/15 14:31:05;;;;;;;0.20;0.20;;;21.70;61.20;;;;;;6272630;28;20478;-71
2023/08/15 14:34:06;;;;;;;0.30;0.30;;;21.70;61.10;;;;;;6271250;28;20032;-71
2023/08/15 14:37:07;;;;;;;0.45;0.40;;;21.70;61.20;;;;;;6272762;28;20111;-71
2023/08/15 14:40:08;;;;;;;0.30;0.30;;;21.70;61.20;;;;;;6272937;28;20025;-71
2023/08/15 14:43:09;;;;;;;0.30;0.30;;;21.70;61.10;;;;;;6254503;28;20658;-71
2023/08/15 14:46:09;;;;;;;0.30;0.30;;;21.80;61.20;;;;;;6253994;28;20033;-71
2023/08/15 14:49:11;;;;;;;0.20;0.20;;;21.80;61.20;;;;;;6272226;28;20037;-71
2023/08/15 14:52:11;;;;;;;0.20;0.20;;;21.70;61.20;;;;;;6272253;28;20025;-71
2023/08/15 14:55:12;;;;;;;0.30;0.30;;;21.70;61.10;;;;;;6272407;28;20063;-71
2023/08/15 14:58:13;;;;;;;0.30;0.30;;;21.70;61.10;;;;;;6270705;28;20033;-71
2023/08/15 15:01:13;;;;;;;1.02;0.20;;;21.70;61.10;;;;;;6254536;28;20497;-71
2023/08/15 15:04:14;;;;;;;0.30;0.30;;;21.70;61.20;;;;;;6253657;28;20029;-71
2023/08/15 15:07:15;;;;;;;0.20;0.20;;;21.80;61.30;;;;;;6272310;28;20060;-71
2023/08/15 15:10:16;;;;;;;0.28;0.28;;;21.70;61.10;;;;;;6254455;28;20037;-71
2023/08/15 15:13:16;;;;;;;0.38;0.38;;;21.70;61.20;;;;;;6254153;28;20063;-71
2023/08/15 15:16:17;;;;;;;0.35;0.35;;;21.70;62.00;;;;;;6271860;28;20052;-71
2023/08/15 15:19:18;;;;;;;0.50;0.30;;;21.70;61.20;;;;;;6271677;28;20033;-70
2023/08/15 15:22:19;;;;;;;0.30;0.30;;;21.70;61.20;;;;;;6271687;28;20100;-71
2023/08/15 15:25:20;;;;;;;0.38;0.30;;;21.80;61.30;;;;;;6253583;28;20124;-71
2023/08/15 15:28:21;;;;;;;0.40;0.38;;;21.80;61.30;;;;;;6271314;28;20114;-71
2023/08/15 15:31:22;;;;;;;0.28;0.28;;;21.70;61.20;;;;;;6253428;28;20036;-69
2023/08/15 15:34:23;;;;;;;0.40;0.40;;;21.80;61.30;;;;;;6270846;28;20112;-69
2023/08/15 15:37:24;;;;;;;0.28;0.28;;;21.80;61.30;;;;;;6271190;28;20025;-69
2023/08/15 15:40:25;;;;;;;0.30;0.30;;;21.80;61.30;;;;;;6270986;28;20138;-69
2023/08/15 15:43:25;;;;;;;0.40;0.40;;;21.80;61.30;;;;;;6271010;28;20542;-68
2023/08/15 15:46:26;;;;;;;0.30;0.30;;;21.80;61.30;;;;;;6253214;28;20033;-70